Time;durP1;ratioP1;P1;durP2;ratioP2;P2;SDS_P1;SDS_P2;PMS_P1;PMS_P2;Temp;Humidity;BMP_temperature;BMP_pressure;BME280_temperature;BME280_humidity;BME280_pressure;Samples;Min_cycle;Max_cycle;Signal;HPM_P1;HPM_P2
2022/05/11 00:01:14;;;;;;;7.90;5.33;;;21.50;67.80;;;;;;5076197;28;20467;-43
2022/05/11 00:03:45;;;;;;;6.70;5.97;;;21.50;68.50;;;;;;5076484;28;20431;-42
2022/05/11 00:06:12;;;;;;;9.80;5.13;;;21.50;70.20;;;;;;5076095;28;20474;-44
2022/05/11 00:08:39;;;;;;;5.57;5.07;;;21.40;71.60;;;;;;5075895;28;20454;-41
2022/05/11 00:11:07;;;;;;;9.40;5.30;;;21.30;73.00;;;;;;5075775;28;20447;-38
2022/05/11 00:13:34;;;;;;;7.07;5.30;;;21.30;74.20;;;;;;5075310;28;20474;-43
2022/05/11 00:16:01;;;;;;;6.10;5.50;;;21.20;76.30;;;;;;5075812;28;20850;-37
2022/05/11 00:18:28;;;;;;;7.30;6.23;;;21.20;78.40;;;;;;5076437;28;20447;-41
2022/05/11 00:20:55;;;;;;;6.47;5.77;;;21.10;81.40;;;;;;5075943;28;20445;-42
2022/05/11 00:23:22;;;;;;;6.40;5.80;;;21.00;84.90;;;;;;5075732;28;20473;-38
2022/05/11 00:25:49;;;;;;;9.53;6.77;;;21.00;89.70;;;;;;5075819;28;20439;-44
2022/05/11 00:28:17;;;;;;;10.70;6.53;;;20.90;92.30;;;;;;5075654;28;20665;-41
2022/05/11 00:30:44;;;;;;;9.43;6.50;;;20.80;94.50;;;;;;5075568;28;20431;-37
2022/05/11 00:33:14;;;;;;;7.60;6.33;;;20.70;96.90;;;;;;5075513;28;20497;-39
2022/05/11 00:35:41;;;;;;;7.77;6.97;;;20.70;99.10;;;;;;5075700;28;20454;-47
2022/05/11 00:38:08;;;;;;;6.70;5.90;;;20.60;99.90;;;;;;5075479;28;20447;-41
2022/05/11 00:40:41;;;;;;;6.63;5.63;;;20.60;99.90;;;;;;5075787;28;20450;-38
2022/05/11 00:43:08;;;;;;;9.27;7.43;;;20.50;99.90;;;;;;5075751;28;20438;-40
2022/05/11 00:45:44;;;;;;;7.00;5.70;;;20.50;99.90;;;;;;5076715;28;20450;-49
2022/05/11 00:50:56;;;;;;;7.27;6.23;;;20.30;99.90;;;;;;5056693;28;20454;-41
2022/05/11 00:53:23;;;;;;;7.07;6.37;;;20.30;99.90;;;;;;5078682;28;20458;-41
2022/05/11 00:55:54;;;;;;;6.67;6.03;;;20.20;99.90;;;;;;5079265;28;20466;-51
2022/05/11 00:58:24;;;;;;;6.10;5.50;;;20.20;99.90;;;;;;5078804;28;20447;-36
2022/05/11 01:00:54;;;;;;;8.33;7.00;;;20.10;99.90;;;;;;5078788;28;20447;-40
2022/05/11 01:03:24;;;;;;;7.70;5.40;;;20.10;99.90;;;;;;5079195;28;20439;-37
2022/05/11 01:05:52;;;;;;;10.80;6.80;;;20.00;99.90;;;;;;5079051;28;20458;-39
2022/05/11 01:08:21;;;;;;;13.50;6.43;;;20.00;99.90;;;;;;5078978;28;20443;-45
2022/05/11 01:10:49;;;;;;;7.43;6.77;;;19.90;99.90;;;;;;5079394;28;20420;-38
2022/05/11 01:13:18;;;;;;;5.63;5.10;;;19.90;99.90;;;;;;5078668;28;20483;-41
2022/05/11 01:15:48;;;;;;;8.37;5.87;;;19.90;99.90;;;;;;5078989;28;20443;-35
2022/05/11 01:18:17;;;;;;;6.80;6.07;;;19.90;99.90;;;;;;5078752;28;20451;-42
2022/05/11 01:20:46;;;;;;;6.00;5.40;;;19.80;99.90;;;;;;5078725;28;20453;-38
2022/05/11 01:23:23;;;;;;;8.33;7.23;;;19.80;99.90;;;;;;5078173;28;20451;-41
2022/05/11 01:25:54;;;;;;;6.60;5.83;;;19.80;99.90;;;;;;5078613;28;20419;-45
2022/05/11 01:28:21;;;;;;;8.10;6.80;;;19.80;99.90;;;;;;5078515;28;20625;-41
2022/05/11 01:30:50;;;;;;;6.23;5.70;;;19.80;99.90;;;;;;5078387;28;20423;-46
2022/05/11 01:33:22;;;;;;;6.60;5.90;;;19.80;99.90;;;;;;5078157;28;20483;-45
2022/05/11 01:35:57;;;;;;;7.70;6.60;;;19.70;99.90;;;;;;5078512;28;20522;-47
2022/05/11 01:38:38;;;;;;;6.50;5.80;;;19.60;99.90;;;;;;5078222;28;20433;-40
2022/05/11 01:41:10;;;;;;;6.80;6.13;;;19.60;99.90;;;;;;5078132;28;20454;-37
2022/05/11 01:43:39;;;;;;;7.97;5.70;;;19.60;99.90;;;;;;5078687;28;20424;-40
2022/05/11 01:46:07;;;;;;;6.73;5.60;;;19.60;99.90;;;;;;5078139;28;20467;-40
2022/05/11 01:48:34;;;;;;;6.67;5.90;;;19.60;99.90;;;;;;5077807;28;20784;-42
2022/05/11 01:51:05;;;;;;;6.00;5.40;;;19.60;99.90;;;;;;5077924;28;20459;-46
2022/05/11 01:53:32;;;;;;;7.70;6.83;;;19.60;99.90;;;;;;5077614;28;20482;-43
2022/05/11 01:55:58;;;;;;;6.47;5.40;;;19.60;99.90;;;;;;5077886;28;20539;-40
2022/05/11 01:58:26;;;;;;;6.50;5.90;;;19.60;99.90;;;;;;5077230;28;20466;-41
2022/05/11 02:00:55;;;;;;;7.40;6.00;;;19.60;99.90;;;;;;5077289;28;20447;-40
2022/05/11 02:03:23;;;;;;;6.97;5.60;;;19.60;99.90;;;;;;5077861;28;20459;-35
2022/05/11 02:08:37;;;;;;;10.73;6.37;;;19.60;99.90;;;;;;5077476;28;20474;-35
2022/05/11 02:11:06;;;;;;;7.67;6.50;;;19.60;99.90;;;;;;5077999;28;20447;-38
2022/05/11 02:13:34;;;;;;;6.80;5.73;;;19.60;99.90;;;;;;5077007;28;20475;-38
2022/05/11 02:16:01;;;;;;;7.00;6.30;;;19.50;99.90;;;;;;5077277;28;20469;-41
2022/05/11 02:18:28;;;;;;;6.43;5.40;;;19.50;99.90;;;;;;5077407;28;20435;-42
2022/05/11 02:20:56;;;;;;;6.97;6.33;;;19.50;99.90;;;;;;5077129;28;20434;-36
2022/05/11 02:23:24;;;;;;;7.23;6.40;;;19.50;99.90;;;;;;5076804;28;20452;-37
2022/05/11 02:25:52;;;;;;;6.80;6.10;;;19.50;99.90;;;;;;5076808;28;20436;-40
2022/05/11 02:28:21;;;;;;;8.67;5.70;;;19.50;99.90;;;;;;5076811;28;20460;-40
2022/05/11 02:30:51;;;;;;;5.33;4.93;;;19.50;99.90;;;;;;5077010;28;20455;-40
2022/05/11 02:33:17;;;;;;;5.63;4.93;;;19.50;99.90;;;;;;5076652;28;20475;-41
2022/05/11 02:35:45;;;;;;;7.43;5.70;;;19.50;99.90;;;;;;5076849;28;20541;-38
2022/05/11 02:38:14;;;;;;;5.60;5.03;;;19.50;99.90;;;;;;5077243;28;20451;-38
2022/05/11 02:40:46;;;;;;;5.87;4.67;;;19.50;99.90;;;;;;5076701;28;20497;-41
2022/05/11 02:43:12;;;;;;;6.77;5.70;;;19.40;99.90;;;;;;5076805;28;20442;-37
2022/05/11 02:45:43;;;;;;;7.97;5.00;;;19.40;99.90;;;;;;5076624;28;20481;-42
2022/05/11 02:48:14;;;;;;;7.30;5.90;;;19.40;99.90;;;;;;5076841;28;20450;-41
2022/05/11 02:50:43;;;;;;;8.27;5.67;;;19.30;99.90;;;;;;5077160;28;20423;-47
2022/05/11 02:53:11;;;;;;;8.23;5.87;;;19.30;99.90;;;;;;5076446;28;20497;-39
2022/05/11 02:55:40;;;;;;;7.07;5.60;;;19.20;99.90;;;;;;5076638;28;20486;-41
2022/05/11 02:58:08;;;;;;;8.37;7.57;;;19.20;99.90;;;;;;5076780;28;20455;-42
2022/05/11 03:00:36;;;;;;;6.80;5.50;;;19.20;99.90;;;;;;5076612;28;20447;-41
2022/05/11 03:03:04;;;;;;;10.10;6.37;;;19.20;99.90;;;;;;5076403;28;20431;-40
2022/05/11 03:05:33;;;;;;;6.63;5.50;;;19.20;99.90;;;;;;5076419;28;20431;-45
2022/05/11 03:07:59;;;;;;;7.27;6.47;;;19.20;99.90;;;;;;5076373;28;20458;-40
2022/05/11 03:10:26;;;;;;;8.07;5.77;;;19.20;99.90;;;;;;5076245;28;20443;-39
2022/05/11 03:12:53;;;;;;;6.67;5.73;;;19.20;99.90;;;;;;5076293;28;20427;-42
2022/05/11 03:15:23;;;;;;;6.67;6.07;;;19.10;99.90;;;;;;5076370;28;20491;-35
2022/05/11 03:17:52;;;;;;;8.00;5.87;;;19.10;99.90;;;;;;5076437;28;20435;-43
2022/05/11 03:20:21;;;;;;;6.43;5.70;;;19.10;99.90;;;;;;5076223;28;20459;-38
2022/05/11 03:22:52;;;;;;;6.27;5.60;;;19.10;99.90;;;;;;5076153;28;20465;-41
2022/05/11 03:25:21;;;;;;;6.20;5.10;;;19.10;99.90;;;;;;5075642;28;20490;-41
2022/05/11 03:27:49;;;;;;;6.50;5.53;;;19.10;99.90;;;;;;5076090;28;20428;-35
2022/05/11 03:30:16;;;;;;;6.90;5.87;;;19.00;99.90;;;;;;5076193;28;20439;-43
2022/05/11 03:35:27;;;;;;;16.57;6.03;;;19.00;99.90;;;;;;5075845;28;20462;-38
2022/05/11 03:37:55;;;;;;;6.30;5.70;;;19.00;99.90;;;;;;5075613;28;20463;-40
2022/05/11 03:40:22;;;;;;;6.17;5.57;;;18.90;99.90;;;;;;5076240;28;20435;-40
2022/05/11 03:42:49;;;;;;;7.03;5.83;;;18.90;99.90;;;;;;5075978;28;20459;-45
2022/05/11 03:45:17;;;;;;;6.73;5.70;;;19.00;99.90;;;;;;5075980;28;20447;-41
2022/05/11 03:47:48;;;;;;;7.57;6.73;;;19.00;99.90;;;;;;5075811;28;20509;-41
2022/05/11 03:50:15;;;;;;;7.53;6.23;;;18.90;99.90;;;;;;5075624;28;20438;-37
2022/05/11 03:52:42;;;;;;;10.93;6.83;;;18.90;99.90;;;;;;5075250;28;20447;-39
2022/05/11 03:55:11;;;;;;;7.77;6.97;;;19.00;99.90;;;;;;5075488;28;20483;-39
2022/05/11 03:57:39;;;;;;;6.93;6.20;;;18.90;99.90;;;;;;5075637;28;20455;-38
2022/05/11 04:00:10;;;;;;;6.13;5.43;;;18.90;99.90;;;;;;5075381;28;20440;-42
2022/05/11 04:02:37;;;;;;;9.77;6.60;;;18.90;99.90;;;;;;5075771;28;20474;-33
2022/05/11 04:05:04;;;;;;;7.40;6.53;;;18.90;99.90;;;;;;5075069;28;20450;-40
2022/05/11 04:07:32;;;;;;;6.30;5.30;;;18.80;99.90;;;;;;5075770;28;20478;-39
2022/05/11 04:09:58;;;;;;;6.93;6.23;;;18.90;99.90;;;;;;5075565;28;20478;-39
2022/05/11 04:12:29;;;;;;;7.90;6.67;;;18.80;99.90;;;;;;5075629;28;20438;-36
2022/05/11 04:14:56;;;;;;;6.63;5.93;;;18.80;99.90;;;;;;5075303;28;20539;-42
2022/05/11 04:17:23;;;;;;;7.57;6.77;;;18.80;99.90;;;;;;5075792;28;20423;-39
2022/05/11 04:19:50;;;;;;;6.93;6.07;;;18.80;99.90;;;;;;5075530;28;20546;-45
2022/05/11 04:22:16;;;;;;;7.40;6.60;;;18.80;99.90;;;;;;5079095;28;20463;-51
2022/05/11 04:24:43;;;;;;;7.30;6.40;;;18.80;99.90;;;;;;5079621;28;20484;-50
2022/05/11 04:27:10;;;;;;;9.33;6.57;;;18.70;99.90;;;;;;5079708;28;21171;-43
2022/05/11 04:29:39;;;;;;;7.40;6.37;;;18.70;99.90;;;;;;5079941;28;20447;-42
2022/05/11 04:32:07;;;;;;;9.20;7.03;;;18.70;99.90;;;;;;5079318;28;20490;-40
2022/05/11 04:34:34;;;;;;;8.23;6.97;;;18.70;99.90;;;;;;5079110;28;20450;-41
2022/05/11 04:37:01;;;;;;;7.70;6.90;;;18.70;99.90;;;;;;5079234;28;20457;-39
2022/05/11 04:39:27;;;;;;;10.80;6.60;;;18.80;99.90;;;;;;5079482;28;20473;-41
2022/05/11 04:41:54;;;;;;;7.73;6.70;;;18.70;99.90;;;;;;5078944;28;20473;-38
2022/05/11 04:44:22;;;;;;;7.10;6.50;;;18.80;99.90;;;;;;5078943;28;20443;-48
2022/05/11 04:46:50;;;;;;;9.10;6.40;;;18.80;99.90;;;;;;5078927;28;20508;-38
2022/05/11 04:49:19;;;;;;;6.10;5.50;;;18.80;99.90;;;;;;5079039;28;20455;-44
2022/05/11 04:51:46;;;;;;;9.03;7.00;;;18.90;99.90;;;;;;5078792;28;20520;-41
2022/05/11 04:54:13;;;;;;;7.67;6.60;;;18.90;99.90;;;;;;5078824;28;20544;-45
2022/05/11 04:56:42;;;;;;;8.60;7.50;;;18.90;99.90;;;;;;5079069;28;20462;-39
2022/05/11 04:59:12;;;;;;;9.50;6.80;;;18.90;99.90;;;;;;5079357;28;20478;-41
2022/05/11 05:01:39;;;;;;;7.83;7.10;;;18.90;99.90;;;;;;5078611;28;20478;-42
2022/05/11 05:04:07;;;;;;;8.90;7.00;;;18.90;99.90;;;;;;5078247;28;20439;-37
2022/05/11 05:06:34;;;;;;;8.40;7.60;;;19.00;99.90;;;;;;5077555;28;20455;-40
2022/05/11 05:09:04;;;;;;;8.00;6.70;;;18.90;99.90;;;;;;5078525;28;20490;-42
2022/05/11 05:11:31;;;;;;;10.00;7.50;;;18.90;99.90;;;;;;5078683;28;20447;-45
2022/05/11 05:14:00;;;;;;;9.53;8.33;;;19.00;99.90;;;;;;5078453;28;20545;-39
2022/05/11 05:16:27;;;;;;;10.33;8.00;;;19.10;99.90;;;;;;5078384;28;20455;-42
2022/05/11 05:18:54;;;;;;;8.37;7.10;;;19.10;99.90;;;;;;5072751;28;20801;-41
2022/05/11 05:21:22;;;;;;;7.30;6.43;;;19.10;99.90;;;;;;5064191;28;20443;-42
2022/05/11 05:23:49;;;;;;;8.73;7.83;;;19.10;99.90;;;;;;5064752;28;20470;-43
2022/05/11 05:26:16;;;;;;;12.13;7.40;;;19.10;99.90;;;;;;5063215;28;20513;-42
2022/05/11 05:31:30;;;;;;;9.20;8.13;;;19.20;99.90;;;;;;5063175;28;20872;-49
2022/05/11 05:33:59;;;;;;;9.50;7.20;;;19.30;99.90;;;;;;5061023;28;20563;-40
2022/05/11 05:36:28;;;;;;;9.70;7.63;;;19.30;99.90;;;;;;5060104;28;20880;-43
2022/05/11 05:38:57;;;;;;;10.47;9.40;;;19.30;99.90;;;;;;5059962;28;20478;-45
2022/05/11 05:41:25;;;;;;;9.13;7.90;;;19.30;99.90;;;;;;5060391;28;20499;-38
2022/05/11 05:43:52;;;;;;;9.23;7.97;;;19.40;99.90;;;;;;5060918;28;20436;-43
2022/05/11 05:46:19;;;;;;;12.73;8.10;;;19.40;99.90;;;;;;5058001;28;20499;-45
2022/05/11 05:48:49;;;;;;;8.93;7.10;;;19.50;99.90;;;;;;5049315;28;20431;-39
2022/05/11 05:51:17;;;;;;;15.80;8.00;;;19.50;99.90;;;;;;5048397;28;20951;-46
2022/05/11 05:53:45;;;;;;;13.80;8.33;;;19.50;99.90;;;;;;5051037;28;20918;-43
2022/05/11 05:56:14;;;;;;;7.90;6.80;;;19.60;99.90;;;;;;5048149;28;20506;-44
2022/05/11 05:58:45;;;;;;;11.40;7.50;;;19.60;99.90;;;;;;5050520;28;20498;-42
2022/05/11 06:01:13;;;;;;;9.00;7.90;;;19.60;99.90;;;;;;5048874;28;20518;-43
2022/05/11 06:03:41;;;;;;;10.23;8.47;;;19.70;99.90;;;;;;5049094;28;20443;-48
2022/05/11 06:06:09;;;;;;;9.30;8.13;;;19.70;99.90;;;;;;5051108;28;20455;-43
2022/05/11 06:08:37;;;;;;;14.33;9.07;;;19.70;99.90;;;;;;5040292;28;20487;-42
2022/05/11 06:11:07;;;;;;;13.83;8.30;;;19.80;99.90;;;;;;5040104;28;20451;-43
2022/05/11 06:13:34;;;;;;;10.53;7.93;;;19.90;99.90;;;;;;5040080;28;21138;-44
2022/05/11 06:16:02;;;;;;;13.20;9.10;;;19.90;99.90;;;;;;5039879;28;20506;-42
2022/05/11 06:18:29;;;;;;;11.10;10.00;;;19.90;99.90;;;;;;5040037;28;20518;-38
2022/05/11 06:20:56;;;;;;;13.03;9.90;;;19.90;99.90;;;;;;5039588;28;20523;-45
2022/05/11 06:23:23;;;;;;;11.27;8.50;;;19.80;99.90;;;;;;5039850;28;20452;-42
2022/05/11 06:25:50;;;;;;;11.63;9.57;;;19.80;99.90;;;;;;5039998;28;20482;-43
2022/05/11 06:28:20;;;;;;;12.27;8.90;;;19.90;99.90;;;;;;5039588;28;20460;-42
2022/05/11 06:30:47;;;;;;;9.43;7.97;;;19.90;99.90;;;;;;5039250;28;20510;-45
2022/05/11 06:33:14;;;;;;;10.90;8.37;;;20.00;99.90;;;;;;5039236;28;20467;-41
2022/05/11 06:35:41;;;;;;;9.70;7.30;;;20.00;99.90;;;;;;5039451;28;20487;-43
2022/05/11 06:38:09;;;;;;;9.93;8.23;;;20.10;99.90;;;;;;5040128;28;20453;-43
2022/05/11 06:40:37;;;;;;;11.17;7.80;;;20.10;99.90;;;;;;5040398;28;20478;-42
2022/05/11 06:43:04;;;;;;;10.97;7.53;;;20.10;99.90;;;;;;5040531;28;20436;-45
2022/05/11 06:45:33;;;;;;;11.40;8.20;;;20.10;99.90;;;;;;5040269;28;20462;-45
2022/05/11 06:47:59;;;;;;;11.37;8.50;;;20.20;99.90;;;;;;5039592;28;20452;-45
2022/05/11 06:50:27;;;;;;;10.50;9.03;;;20.30;99.90;;;;;;5039209;28;20486;-43
2022/05/11 06:52:54;;;;;;;11.57;8.60;;;20.40;99.90;;;;;;5048216;28;20490;-45
2022/05/11 07:00:54;;;;;;;12.20;9.00;;;20.80;99.90;;;;;;5057478;28;20477;-42
2022/05/11 07:03:21;;;;;;;13.70;8.90;;;20.80;99.90;;;;;;5065119;28;20487;-44
2022/05/11 07:05:48;;;;;;;10.43;9.20;;;20.80;99.90;;;;;;5056455;28;20434;-39
2022/05/11 07:08:15;;;;;;;9.50;8.40;;;20.90;99.90;;;;;;5066742;28;20467;-38
2022/05/11 07:10:43;;;;;;;10.87;7.90;;;21.00;99.90;;;;;;5068611;28;20496;-39
2022/05/11 07:13:10;;;;;;;11.90;8.70;;;21.10;99.90;;;;;;5064212;28;20478;-39
2022/05/11 07:15:37;;;;;;;8.53;7.73;;;21.20;99.90;;;;;;5071647;28;20468;-40
2022/05/11 07:18:11;;;;;;;9.60;7.70;;;21.30;99.90;;;;;;5059435;28;20440;-41
2022/05/11 07:20:38;;;;;;;15.47;8.83;;;21.60;99.90;;;;;;5059421;28;20547;-37
2022/05/11 07:23:07;;;;;;;8.10;7.30;;;21.80;99.90;;;;;;5056368;28;20467;-42
2022/05/11 07:25:35;;;;;;;13.40;7.27;;;21.90;99.90;;;;;;5072616;28;20498;-39
2022/05/11 07:28:03;;;;;;;10.70;7.67;;;22.10;99.90;;;;;;5063079;28;20452;-44
2022/05/11 07:30:32;;;;;;;10.83;7.13;;;22.30;99.90;;;;;;5074402;28;20474;-43
2022/05/11 07:32:59;;;;;;;8.77;7.63;;;22.60;99.90;;;;;;5075333;28;20466;-37
2022/05/11 07:35:28;;;;;;;8.03;6.70;;;22.80;99.90;;;;;;5065777;28;20480;-41
2022/05/11 07:37:55;;;;;;;7.73;6.40;;;23.00;99.90;;;;;;5055129;28;20448;-39
2022/05/11 07:40:24;;;;;;;9.23;6.90;;;23.20;99.90;;;;;;5055064;28;20455;-42
2022/05/11 07:42:55;;;;;;;5.90;5.33;;;23.80;99.90;;;;;;5055425;28;20514;-42
2022/05/11 07:45:23;;;;;;;9.97;6.03;;;24.30;99.90;;;;;;5054775;28;20428;-39
2022/05/11 07:47:51;;;;;;;8.37;5.00;;;24.60;99.90;;;;;;5054053;28;20448;-42
2022/05/11 07:50:18;;;;;;;6.37;5.83;;;24.70;99.90;;;;;;5054366;28;20448;-42
2022/05/11 07:52:47;;;;;;;6.87;6.17;;;24.90;99.90;;;;;;5054869;28;20486;-43
2022/05/11 07:55:15;;;;;;;6.20;5.13;;;25.20;99.90;;;;;;5054421;28;20463;-41
2022/05/11 08:00:34;;;;;;;9.23;6.20;;;25.10;99.90;;;;;;5057341;28;20471;-46
2022/05/11 08:03:01;;;;;;;7.60;6.80;;;25.20;99.90;;;;;;5058546;28;20610;-42
2022/05/11 08:05:30;;;;;;;6.20;5.60;;;25.60;99.90;;;;;;5059228;28;20452;-45
2022/05/11 08:08:00;;;;;;;6.67;5.67;;;26.20;99.90;;;;;;5057159;28;20482;-42
2022/05/11 08:10:29;;;;;;;6.07;5.47;;;26.90;99.90;;;;;;5058311;28;20456;-44
2022/05/11 08:12:55;;;;;;;7.57;5.53;;;27.30;97.50;;;;;;5059567;28;20440;-42
2022/05/11 08:15:24;;;;;;;7.77;5.63;;;27.50;96.10;;;;;;5057104;28;20475;-44
2022/05/11 08:17:52;;;;;;;7.57;6.13;;;27.90;95.00;;;;;;5058720;28;20436;-42
2022/05/11 08:20:22;;;;;;;8.97;5.83;;;28.50;92.60;;;;;;5059370;28;20479;-38
2022/05/11 08:22:51;;;;;;;7.63;6.93;;;28.70;91.40;;;;;;5058759;28;21014;-41
2022/05/11 08:25:23;;;;;;;7.70;7.00;;;28.70;90.00;;;;;;5058929;28;20475;-38
2022/05/11 08:27:51;;;;;;;10.47;8.37;;;29.00;89.40;;;;;;5059712;28;20471;-39
2022/05/11 08:33:22;;;;;;;11.93;6.70;;;29.40;84.40;;;;;;5059334;28;20463;-40
2022/05/11 08:35:51;;;;;;;6.47;5.63;;;29.80;83.10;;;;;;5055615;28;20506;-43
2022/05/11 08:38:18;;;;;;;7.07;6.57;;;30.30;79.10;;;;;;5053949;28;20475;-39
2022/05/11 08:40:51;;;;;;;7.57;6.77;;;29.80;77.90;;;;;;5053954;28;20440;-44
2022/05/11 08:43:21;;;;;;;6.50;5.90;;;29.30;79.20;;;;;;5053872;28;20444;-43
2022/05/11 08:45:55;;;;;;;6.70;6.00;;;28.60;80.60;;;;;;5053301;28;20482;-39
2022/05/11 08:48:39;;;;;;;8.80;6.90;;;28.30;82.10;;;;;;5054296;28;20428;-42
2022/05/11 08:51:13;;;;;;;8.40;6.67;;;28.10;81.40;;;;;;5052894;28;20502;-48
2022/05/11 08:53:42;;;;;;;8.97;6.40;;;27.60;83.00;;;;;;5056037;28;20436;-37
2022/05/11 08:56:16;;;;;;;7.77;7.07;;;27.30;84.20;;;;;;5058387;28;20476;-40
2022/05/11 08:58:49;;;;;;;7.73;6.93;;;27.20;85.30;;;;;;5058232;28;20416;-39
2022/05/11 09:01:23;;;;;;;7.20;6.50;;;27.30;85.10;;;;;;5059174;28;20475;-44
2022/05/11 09:03:54;;;;;;;9.97;7.40;;;27.20;85.40;;;;;;5058712;28;20427;-46
2022/05/11 09:06:24;;;;;;;7.87;7.17;;;27.10;85.00;;;;;;5058706;28;20464;-44
2022/05/11 09:08:53;;;;;;;8.07;7.27;;;26.60;86.10;;;;;;5057914;28;20428;-40
2022/05/11 09:11:28;;;;;;;8.17;7.43;;;26.50;87.70;;;;;;5057995;28;20444;-40
2022/05/11 09:14:01;;;;;;;8.30;7.60;;;26.40;87.60;;;;;;5058498;28;20416;-41
2022/05/11 09:16:38;;;;;;;9.67;7.97;;;26.50;88.20;;;;;;5058714;28;20464;-41
2022/05/11 09:19:17;;;;;;;8.00;7.30;;;26.90;87.20;;;;;;5057066;28;20467;-42
2022/05/11 09:21:50;;;;;;;8.43;6.80;;;27.40;86.70;;;;;;5057154;28;20435;-40
2022/05/11 09:24:28;;;;;;;11.13;9.10;;;27.70;85.70;;;;;;5058126;28;20464;-42
2022/05/11 09:27:06;;;;;;;9.07;8.17;;;28.50;84.90;;;;;;5058523;28;20455;-40
2022/05/11 09:29:38;;;;;;;9.90;7.77;;;29.20;79.80;;;;;;5058263;28;20472;-42
2022/05/11 09:32:26;;;;;;;10.57;9.53;;;29.80;78.60;;;;;;5057911;28;20420;-40
2022/05/11 09:34:53;;;;;;;8.30;7.60;;;30.60;75.80;;;;;;5058913;28;20520;-37
2022/05/11 09:37:26;;;;;;;9.60;7.23;;;30.90;73.40;;;;;;5077328;28;20467;-40
2022/05/11 09:40:03;;;;;;;8.80;8.10;;;30.50;72.00;;;;;;5077992;28;20428;-42
2022/05/11 09:42:32;;;;;;;8.47;7.67;;;29.80;72.70;;;;;;5077669;28;20434;-39
2022/05/11 09:45:00;;;;;;;10.27;9.13;;;29.30;73.80;;;;;;5077645;28;20500;-40
2022/05/11 09:47:30;;;;;;;11.43;8.50;;;28.90;75.50;;;;;;5077602;28;20420;-37
2022/05/11 09:50:14;;;;;;;8.87;8.17;;;28.60;76.80;;;;;;5078014;28;20851;-36
2022/05/11 09:52:42;;;;;;;9.70;8.80;;;28.20;77.30;;;;;;5076910;28;20567;-46
2022/05/11 09:55:18;;;;;;;10.97;9.87;;;27.80;78.30;;;;;;5077492;28;20444;-37
2022/05/11 09:57:58;;;;;;;9.60;8.70;;;27.70;78.90;;;;;;5077431;28;20527;-42
2022/05/11 10:00:29;;;;;;;18.43;9.50;;;28.40;78.10;;;;;;5089439;28;20446;-36
2022/05/11 10:02:58;;;;;;;9.80;8.97;;;29.50;75.20;;;;;;5097090;28;21088;-39
2022/05/11 10:05:28;;;;;;;10.93;9.90;;;30.70;71.70;;;;;;5096868;28;20443;-40
2022/05/11 10:08:03;;;;;;;9.05;8.25;;;31.50;69.60;;;;;;5096244;28;20461;-41
2022/05/11 10:10:37;;;;;;;8.70;7.90;;;31.90;66.60;;;;;;5097295;28;20187;-38
2022/05/11 10:13:14;;;;;;;9.43;7.47;;;32.10;65.00;;;;;;5097510;28;20430;-40
2022/05/11 10:24:21;;;;;;;8.17;7.33;;;33.50;58.60;;;;;;5096509;28;20433;-42
2022/05/11 10:26:59;;;;;;;9.07;8.30;;;33.40;58.00;;;;;;5096718;28;20458;-39
2022/05/11 10:29:42;;;;;;;7.80;7.10;;;33.20;58.00;;;;;;5096739;28;20474;-40
2022/05/11 10:32:14;;;;;;;7.87;7.07;;;33.40;58.10;;;;;;5096873;28;20509;-41
2022/05/11 10:34:53;;;;;;;6.77;6.17;;;33.10;57.10;;;;;;5096853;28;20434;-40
2022/05/11 10:37:29;;;;;;;7.83;7.00;;;33.10;56.60;;;;;;5096717;28;20486;-38
2022/05/11 10:40:19;;;;;;;10.87;7.07;;;33.10;56.20;;;;;;5096646;28;20514;-36
2022/05/11 10:42:50;;;;;;;6.70;6.07;;;32.70;56.30;;;;;;5095625;28;20477;-41
2022/05/11 10:45:22;;;;;;;12.40;10.27;;;32.40;56.80;;;;;;5096588;28;20426;-45
2022/05/11 10:48:05;;;;;;;6.73;6.13;;;32.00;57.40;;;;;;5096351;28;20470;-39
2022/05/11 10:50:40;;;;;;;6.73;6.13;;;31.70;57.50;;;;;;5096455;28;20498;-40
2022/05/11 10:53:21;;;;;;;6.30;5.30;;;31.10;58.00;;;;;;5096278;28;20464;-39
2022/05/11 10:56:01;;;;;;;6.20;5.70;;;30.80;58.30;;;;;;5096742;28;20958;-44
2022/05/11 10:58:40;;;;;;;7.27;6.53;;;30.50;59.00;;;;;;5097153;28;20429;-41
2022/05/11 11:01:11;;;;;;;6.30;5.80;;;30.30;59.30;;;;;;5096833;28;20450;-41
2022/05/11 11:04:05;;;;;;;7.10;5.63;;;30.00;59.30;;;;;;5097083;28;20444;-37
2022/05/11 11:09:37;;;;;;;6.90;6.30;;;29.40;61.70;;;;;;5096136;28;20417;-39
2022/05/11 11:12:09;;;;;;;6.20;5.70;;;29.30;62.70;;;;;;5095784;28;20432;-39
2022/05/11 11:14:41;;;;;;;8.70;5.80;;;29.30;63.10;;;;;;5082253;28;20431;-40
2022/05/11 11:17:17;;;;;;;8.67;5.60;;;29.20;62.30;;;;;;5069511;28;20491;-38
2022/05/11 11:19:48;;;;;;;5.37;4.97;;;29.00;62.10;;;;;;5074043;28;20442;-41
2022/05/11 11:22:16;;;;;;;5.60;5.10;;;29.00;62.40;;;;;;5074548;28;20482;-42
2022/05/11 11:24:43;;;;;;;4.90;4.50;;;29.00;62.30;;;;;;5074510;28;20459;-36
2022/05/11 11:27:13;;;;;;;7.63;5.77;;;29.10;61.50;;;;;;5074139;28;20467;-36
2022/05/11 11:30:20;;;;;;;5.10;4.60;;;29.10;60.50;;;;;;5073963;28;20443;-38
2022/05/11 11:33:23;;;;;;;5.50;5.10;;;28.80;60.00;;;;;;5074838;28;20451;-38
2022/05/11 11:35:56;;;;;;;7.13;4.70;;;28.70;61.40;;;;;;5074853;28;20439;-39
2022/05/11 11:38:28;;;;;;;6.23;5.70;;;28.90;61.80;;;;;;5074849;28;20455;-42
2022/05/11 11:41:14;;;;;;;5.70;4.67;;;29.10;60.60;;;;;;5074219;28;20462;-36
2022/05/11 11:43:53;;;;;;;5.00;4.47;;;29.00;60.10;;;;;;5074473;28;20424;-39
2022/05/11 11:46:38;;;;;;;7.53;4.90;;;28.90;60.90;;;;;;5075139;28;20404;-40
2022/05/11 11:49:10;;;;;;;5.67;5.17;;;28.70;61.40;;;;;;5074736;28;20499;-37
2022/05/11 11:51:58;;;;;;;5.63;5.10;;;28.50;60.20;;;;;;5074378;28;20451;-49
2022/05/11 11:54:36;;;;;;;6.43;5.07;;;28.50;60.70;;;;;;5075086;28;20444;-39
2022/05/11 11:57:04;;;;;;;5.50;5.00;;;28.60;60.20;;;;;;5075459;28;20470;-38
2022/05/11 11:59:41;;;;;;;4.27;3.67;;;28.80;59.70;;;;;;5075488;28;20475;-36
2022/05/11 12:02:23;;;;;;;4.47;4.07;;;28.90;59.30;;;;;;5074744;28;20428;-39
2022/05/11 12:05:06;;;;;;;4.47;4.07;;;28.80;57.90;;;;;;5075280;28;20431;-36
2022/05/11 12:16:07;;;;;;;3.60;3.30;;;29.20;54.70;;;;;;5065560;28;20481;-43
2022/05/11 12:18:37;;;;;;;6.63;4.57;;;29.20;53.80;;;;;;5065391;28;20467;-39
2022/05/11 12:21:09;;;;;;;4.00;3.60;;;29.00;53.20;;;;;;5065757;28;20876;-42
2022/05/11 12:23:39;;;;;;;9.03;4.00;;;29.00;53.60;;;;;;5066069;28;20527;-42
2022/05/11 12:26:08;;;;;;;7.60;4.20;;;28.90;53.10;;;;;;5065859;28;20523;-45
2022/05/11 12:28:38;;;;;;;3.90;3.60;;;28.90;53.70;;;;;;5066785;28;20502;-40
2022/05/11 12:31:06;;;;;;;8.20;3.80;;;28.70;53.80;;;;;;5065125;28;20499;-41
2022/05/11 12:33:39;;;;;;;22.57;4.27;;;28.50;54.00;;;;;;5065046;28;20981;-41
2022/05/11 12:36:08;;;;;;;8.93;3.90;;;28.40;54.90;;;;;;5065897;28;20431;-38
2022/05/11 12:38:39;;;;;;;4.30;3.80;;;28.30;55.50;;;;;;5067047;28;20813;-41
2022/05/11 12:41:13;;;;;;;6.20;3.50;;;28.30;56.00;;;;;;5067675;28;20517;-47
2022/05/11 12:43:49;;;;;;;4.50;4.10;;;28.30;55.40;;;;;;5071627;28;20434;-40
2022/05/11 12:46:18;;;;;;;7.10;4.40;;;28.50;55.40;;;;;;5071814;28;20501;-38
2022/05/11 12:48:54;;;;;;;4.47;4.07;;;28.60;55.40;;;;;;5071471;28;20459;-40
2022/05/11 12:51:33;;;;;;;5.73;4.70;;;28.80;55.30;;;;;;5070532;28;20477;-40
2022/05/11 12:54:03;;;;;;;7.60;4.07;;;28.80;54.90;;;;;;5070590;28;20458;-42
2022/05/11 12:56:33;;;;;;;4.93;3.93;;;28.70;55.60;;;;;;5071040;28;20506;-42
2022/05/11 12:59:04;;;;;;;6.97;4.03;;;28.70;55.60;;;;;;5070354;28;20524;-41
2022/05/11 13:01:35;;;;;;;7.27;3.83;;;28.70;55.40;;;;;;5070349;28;20431;-38
2022/05/11 13:04:16;;;;;;;4.10;3.80;;;28.80;55.50;;;;;;5071760;28;20427;-41
2022/05/11 13:06:47;;;;;;;4.20;3.70;;;28.80;54.80;;;;;;5071448;28;20491;-44
2022/05/11 13:09:19;;;;;;;3.80;3.40;;;29.00;55.10;;;;;;5071469;28;20467;-40
2022/05/11 13:11:47;;;;;;;3.97;3.67;;;29.00;55.20;;;;;;5071659;28;20439;-39
2022/05/11 13:14:18;;;;;;;3.97;3.57;;;29.20;55.10;;;;;;5070986;28;20463;-41
2022/05/11 13:16:48;;;;;;;3.73;3.43;;;29.30;54.40;;;;;;5072275;28;20471;-41
2022/05/11 13:19:23;;;;;;;4.00;3.60;;;29.40;54.80;;;;;;5070789;28;20507;-42
2022/05/11 13:21:53;;;;;;;6.40;3.67;;;29.30;54.80;;;;;;5069942;28;20431;-43
2022/05/11 13:24:36;;;;;;;4.00;3.70;;;29.10;55.60;;;;;;5069048;28;20493;-38
2022/05/11 13:27:23;;;;;;;6.47;4.17;;;28.80;55.90;;;;;;5068042;28;20455;-43
2022/05/11 13:30:01;;;;;;;4.33;3.93;;;28.70;56.30;;;;;;5071286;28;20477;-38
2022/05/11 13:32:28;;;;;;;3.77;3.47;;;28.60;56.70;;;;;;5077002;28;20450;-38
2022/05/11 13:35:16;;;;;;;6.20;4.30;;;28.50;56.70;;;;;;5077097;28;20440;-38
2022/05/11 13:37:59;;;;;;;4.47;4.07;;;28.50;57.30;;;;;;5077822;28;20466;-38
2022/05/11 13:40:32;;;;;;;6.87;4.13;;;28.40;57.10;;;;;;5078132;28;20424;-35
2022/05/11 13:42:59;;;;;;;5.07;4.57;;;28.40;57.30;;;;;;5072217;28;20428;-42
2022/05/11 13:45:26;;;;;;;6.40;3.57;;;28.50;57.30;;;;;;5078606;28;20435;-36